Lincoln, Illinois
Current Conditions -  °F | °C
As of 3:55 PM on Thursday 18 Dec 2014 (Local Time) from KAAA Reporting Station
Overcast Overcast  
Wind Chill: -1°   Ceiling: 6000
Heat Index: -1°   Visibility: 10mi
Dew Point: -5°   Wind: 0mph
Humidity: 78%   Direction: NA
Pressure: 30.27"   Gusts: NA
Location:  40.15°N, 89.36°W
Report Text: KAAA 182155Z AUTO 00000KT 10SM SCT015 OVC060 M01/M04 A3027 RMK AO2 T10111045
Loading
Personal Weather Stations






























Interactive Weather Map New forecast layout! Learn more

10-Day Weather Forecast

Advertisements
Track Severe Weather on mobile